Main page
METAR-TAF:

METAR-TAF

Airports :

Clintonville Municipal Airport

Clintonville, Wisconsin, United States

latitude: 44-36-50N, longitude: 088-43-53W, elevation: 823 ft

Current weather observation

The report was made 28 minutes ago, at 12:15 UTC
Wind 6 mph from the West
Temperature 30°F
Humidity 80%
Pressure 29.67 in. Hg
Visibility: 10 miles
Scattered clouds at a height of 12000 ft

METAR: KCLI 231215Z AUTO 28005KT 10SM SCT120 M01/M04 A2967 RMK AO2 T10121044

Time: 06:43 (12:43 UTC)


TAF: missing

Weather observations and forecasts of more than 4000 airports (METAR and TAF reports).

The available stations are represented by yellow and red dots on the map.

Hover mouse over dot to see the name of the station.

Then click to see weather observations and forecasts.

To change the map : click on the green buttons with a black cross to zoom in, on the green button with a dash to zoom out, or on the green arrows for adjacent maps.


METAR-TAF: